Time;durP1;ratioP1;P1;durP2;ratioP2;P2;SDS_P1;SDS_P2;PMS_P1;PMS_P2;Temp;Humidity;BMP_temperature;BMP_pressure;BME280_temperature;BME280_humidity;BME280_pressure;Samples;Min_cycle;Max_cycle;Signal;HPM_P1;HPM_P2
2022/04/03 00:00:13;;;;;;;6.75;3.75;;;;;;;1.19;62.33;100115.53;4989514;28;20506;-67
2022/04/03 00:02:38;;;;;;;7.30;3.80;;;;;;;1.18;63.08;100107.75;4989687;28;20053;-67
2022/04/03 00:05:05;;;;;;;6.60;3.72;;;;;;;1.18;62.60;100107.75;4990154;28;20034;-66
2022/04/03 00:07:31;;;;;;;6.70;4.00;;;;;;;1.19;62.41;100106.88;4990152;28;20364;-68
2022/04/03 00:09:56;;;;;;;5.28;3.55;;;;;;;1.13;62.77;100114.69;4974186;28;20085;-67
2022/04/03 00:12:22;;;;;;;5.35;2.92;;;;;;;1.15;62.26;100110.38;5009582;28;20038;-67
2022/04/03 00:14:48;;;;;;;7.72;4.03;;;;;;;1.17;62.84;100111.22;5010266;28;20030;-67
2022/04/03 00:17:13;;;;;;;6.30;3.67;;;;;;;1.17;62.86;100111.22;5009458;28;20038;-67
2022/04/03 00:19:38;;;;;;;10.63;4.15;;;;;;;1.15;62.42;100118.16;5009221;28;20116;-66
2022/04/03 00:22:04;;;;;;;8.25;4.20;;;;;;;1.19;62.49;100110.34;5008783;28;20095;-66
2022/04/03 00:24:29;;;;;;;6.75;3.72;;;;;;;1.22;62.24;100112.06;5009843;28;20143;-67
2022/04/03 00:26:54;;;;;;;6.03;3.15;;;;;;;1.21;62.76;100106.00;5010224;28;20049;-67
2022/04/03 00:29:20;;;;;;;7.30;3.60;;;;;;;1.21;62.48;100112.94;5011707;28;20037;-67
2022/04/03 00:31:45;;;;;;;7.03;3.47;;;;;;;1.24;61.58;100116.38;5016697;28;20030;-66
2022/04/03 00:34:11;;;;;;;5.75;3.08;;;;;;;1.24;62.73;100110.31;5016055;28;20068;-67
2022/04/03 00:36:36;;;;;;;5.00;3.60;;;;;;;1.22;62.76;100117.25;5014947;28;20038;-67
2022/04/03 00:39:03;;;;;;;5.50;3.63;;;;;;;1.20;62.01;100116.38;5013740;28;20038;-65
2022/04/03 00:41:28;;;;;;;5.53;3.38;;;;;;;1.22;62.02;100112.91;5014040;28;20046;-64
2022/04/03 00:43:54;;;;;;;6.78;4.43;;;;;;;1.20;61.84;100122.44;5013929;28;20111;-65
2022/04/03 00:46:23;;;;;;;6.57;3.70;;;;;;;1.21;61.78;100120.72;5013393;28;20037;-66
2022/04/03 00:48:49;;;;;;;8.60;3.80;;;;;;;1.21;62.53;100121.59;5014654;28;20050;-66
2022/04/03 00:51:15;;;;;;;5.10;3.65;;;;;;;1.19;62.14;100123.31;5012539;28;20064;-67
2022/04/03 00:53:40;;;;;;;5.00;3.03;;;;;;;1.23;62.47;100126.75;4995511;28;20034;-66
2022/04/03 00:56:05;;;;;;;7.00;3.95;;;;;;;1.24;61.86;100118.97;4994553;28;20034;-66
2022/04/03 00:58:32;;;;;;;7.10;3.60;;;;;;;1.27;61.98;100118.09;5001110;28;20034;-65
2022/04/03 01:00:57;;;;;;;6.25;3.60;;;;;;;1.31;62.23;100125.00;5006053;28;20402;-65
2022/04/03 01:03:23;;;;;;;6.40;3.47;;;;;;;1.31;62.13;100124.13;5015175;28;20056;-67
2022/04/03 01:05:48;;;;;;;6.03;3.75;;;;;;;1.31;62.58;100119.78;5015534;28;20038;-66
2022/04/03 01:08:14;;;;;;;5.63;3.35;;;;;;;1.39;61.87;100122.34;5013697;28;20030;-66
2022/04/03 01:10:40;;;;;;;10.60;3.53;;;;;;;1.43;62.10;100126.66;5015575;28;20038;-66
2022/04/03 01:13:06;;;;;;;5.43;3.55;;;;;;;1.41;61.69;100124.06;5015172;28;20038;-66
2022/04/03 01:15:33;;;;;;;4.78;3.42;;;;;;;1.34;61.69;100121.50;5014213;28;20045;-67
2022/04/03 01:17:58;;;;;;;8.00;3.97;;;;;;;1.31;62.18;100124.13;5011685;28;20498;-65
2022/04/03 01:20:24;;;;;;;9.65;3.50;;;;;;;1.29;62.38;100124.13;5011373;28;20034;-66
2022/04/03 01:22:49;;;;;;;5.18;3.22;;;;;;;1.24;61.58;100121.56;5011409;28;20080;-66
2022/04/03 01:25:15;;;;;;;7.70;3.78;;;;;;;1.21;61.92;100118.13;5011593;28;20045;-67
2022/04/03 01:27:40;;;;;;;7.30;3.58;;;;;;;1.19;62.44;100115.53;5011275;28;20034;-67
2022/04/03 01:30:07;;;;;;;5.10;3.03;;;;;;;1.21;62.39;100120.72;5011577;28;20096;-66
2022/04/03 01:32:33;;;;;;;7.78;3.60;;;;;;;1.18;62.24;100120.72;5010798;28;20022;-67
2022/04/03 01:34:59;;;;;;;9.10;3.72;;;;;;;1.09;62.13;100113.00;5011495;28;20662;-67
2022/04/03 01:37:24;;;;;;;5.65;3.55;;;;;;;0.96;62.55;100115.66;5009980;28;20037;-66
2022/04/03 01:39:50;;;;;;;7.18;4.28;;;;;;;0.99;62.30;100118.25;5011236;28;20029;-66
2022/04/03 01:42:16;;;;;;;9.55;4.40;;;;;;;0.94;62.09;100114.81;5010764;28;20476;-66
2022/04/03 01:44:42;;;;;;;5.18;3.15;;;;;;;0.88;62.86;100116.56;5011316;28;20496;-65
2022/04/03 01:47:07;;;;;;;5.57;3.33;;;;;;;0.90;63.17;100113.09;5011585;28;20038;-67
2022/04/03 01:49:33;;;;;;;7.82;4.20;;;;;;;0.89;63.17;100107.88;5011443;28;20468;-67
2022/04/03 01:51:58;;;;;;;11.05;4.05;;;;;;;0.86;63.42;100106.16;5010579;28;20030;-67
2022/04/03 01:54:24;;;;;;;4.95;3.08;;;;;;;0.87;62.92;100112.25;5011242;28;20034;-67
2022/04/03 01:56:49;;;;;;;10.52;4.05;;;;;;;0.81;63.15;100116.59;5011350;28;20034;-65
2022/04/03 01:59:14;;;;;;;7.30;3.55;;;;;;;0.79;63.17;100113.16;5011200;28;20054;-66
2022/04/03 02:01:40;;;;;;;7.35;4.22;;;;;;;0.80;63.02;100114.84;5009401;28;20030;-67
2022/04/03 02:04:05;;;;;;;8.88;4.15;;;;;;;0.76;63.13;100114.88;5010922;28;20497;-67
2022/04/03 02:06:31;;;;;;;10.75;5.10;;;;;;;0.67;64.01;100110.59;5011467;28;20053;-66
2022/04/03 02:08:56;;;;;;;6.43;4.00;;;;;;;0.62;63.28;100117.53;5012961;28;20030;-65
2022/04/03 02:11:22;;;;;;;7.50;4.00;;;;;;;0.58;63.10;100116.66;5017317;28;20411;-66
2022/04/03 02:13:47;;;;;;;8.60;3.65;;;;;;;0.51;62.95;100114.09;5013136;28;20405;-66
2022/04/03 02:16:14;;;;;;;6.43;3.38;;;;;;;0.45;63.04;100115.00;5011944;28;20038;-65
2022/04/03 02:18:40;;;;;;;6.85;3.60;;;;;;;0.39;63.56;100117.59;5011854;28;20040;-66
2022/04/03 02:21:05;;;;;;;8.68;3.63;;;;;;;0.35;64.26;100113.28;5011457;28;20034;-67
2022/04/03 02:23:31;;;;;;;8.50;4.35;;;;;;;0.29;63.90;100114.16;5012210;28;20038;-66
2022/04/03 02:25:56;;;;;;;6.18;3.63;;;;;;;0.29;64.07;100116.75;5011848;28;20042;-68
2022/04/03 02:28:21;;;;;;;8.18;3.42;;;;;;;0.31;63.95;100117.59;5010224;28;20045;-67
2022/04/03 02:30:48;;;;;;;6.63;3.92;;;;;;;0.28;64.20;100115.03;5012110;28;20053;-68
2022/04/03 02:33:13;;;;;;;6.72;3.33;;;;;;;0.23;64.03;100123.69;5003093;28;20056;-67
2022/04/03 02:35:38;;;;;;;11.20;3.53;;;;;;;0.17;64.08;100119.34;5011312;28;20061;-67
2022/04/03 02:38:04;;;;;;;13.13;4.65;;;;;;;0.10;63.97;100118.53;5010347;28;20148;-66
2022/04/03 02:40:30;;;;;;;8.00;3.78;;;;;;;0.11;64.33;100115.06;5010170;28;20050;-67
2022/04/03 02:42:55;;;;;;;6.25;3.33;;;;;;;0.16;64.36;100117.66;5011067;28;20042;-66
2022/04/03 02:45:21;;;;;;;8.18;3.60;;;;;;;0.14;63.60;100112.44;5010646;28;20046;-66
2022/04/03 02:47:51;;;;;;;6.72;3.17;;;;;;;0.07;64.07;100117.66;5007833;28;20040;-67
2022/04/03 02:50:17;;;;;;;5.18;2.90;;;;;;;0.01;63.84;100118.53;5011392;28;20041;-67
2022/04/03 02:52:46;;;;;;;9.63;4.07;;;;;;;-0.02;64.43;100121.13;5008746;28;20057;-67
2022/04/03 02:55:12;;;;;;;9.70;2.90;;;;;;;-0.03;64.28;100116.78;5011517;28;20823;-67
2022/04/03 02:57:37;;;;;;;7.78;4.45;;;;;;;-0.06;63.65;100116.81;5010807;28;20041;-66
2022/04/03 03:00:05;;;;;;;12.07;5.35;;;;;;;-0.10;64.28;100123.72;5010821;28;20045;-67
2022/04/03 03:02:31;;;;;;;5.57;3.10;;;;;;;-0.09;64.17;100128.03;5009049;28;20054;-66
2022/04/03 03:04:57;;;;;;;6.95;3.53;;;;;;;-0.12;63.47;100120.28;5010687;28;20037;-66
2022/04/03 03:07:22;;;;;;;7.35;4.65;;;;;;;-0.10;63.16;100120.25;5010948;28;20053;-66
2022/04/03 03:09:48;;;;;;;5.70;3.45;;;;;;;-0.09;63.37;100116.81;5010384;28;20038;-64
2022/04/03 03:12:14;;;;;;;4.30;2.55;;;;;;;-0.09;63.90;100119.41;4994149;28;20124;-65
2022/04/03 03:14:40;;;;;;;5.72;3.67;;;;;;;-0.09;63.85;100122.84;5005788;28;20115;-66
2022/04/03 03:17:05;;;;;;;4.75;2.88;;;;;;;-0.07;64.06;100122.88;5010992;28;20034;-66
2022/04/03 03:19:31;;;;;;;4.40;2.95;;;;;;;-0.10;63.53;100120.25;5009595;28;20077;-67
2022/04/03 03:21:56;;;;;;;4.82;3.10;;;;;;;-0.13;63.07;100122.84;5009247;28;20042;-66
2022/04/03 03:24:22;;;;;;;9.25;3.80;;;;;;;-0.12;63.24;100122.84;5008370;28;20175;-67
2022/04/03 03:26:47;;;;;;;5.95;3.50;;;;;;;-0.17;63.37;100126.28;5008442;28;20045;-65
2022/04/03 03:29:13;;;;;;;4.78;2.92;;;;;;;-0.19;63.74;100125.47;5001385;28;20126;-66
2022/04/03 03:31:38;;;;;;;5.68;3.33;;;;;;;-0.21;63.21;100128.03;4989840;28;20034;-66
2022/04/03 03:34:04;;;;;;;5.55;3.10;;;;;;;-0.22;63.10;100123.72;4988710;28;20101;-65
2022/04/03 03:36:29;;;;;;;5.47;3.17;;;;;;;-0.22;62.73;100123.72;4999651;28;20042;-65
2022/04/03 03:38:55;;;;;;;4.90;3.35;;;;;;;-0.26;63.26;100111.63;5009622;28;20037;-66
2022/04/03 03:41:21;;;;;;;6.40;3.60;;;;;;;-0.25;63.31;100124.59;5010618;28;20037;-65
2022/04/03 03:43:47;;;;;;;5.97;3.38;;;;;;;-0.25;62.95;100123.72;5011142;28;20064;-68
2022/04/03 03:46:13;;;;;;;5.45;3.58;;;;;;;-0.26;63.09;100124.59;5012569;28;20520;-65
2022/04/03 03:48:38;;;;;;;6.80;4.03;;;;;;;-0.31;62.53;100129.75;5010761;28;20045;-67
2022/04/03 03:51:04;;;;;;;7.00;3.58;;;;;;;-0.33;63.70;100128.88;5010642;28;20037;-66
2022/04/03 03:53:30;;;;;;;6.63;3.80;;;;;;;-0.35;63.81;100138.38;5010937;28;20041;-65
2022/04/03 03:55:56;;;;;;;7.45;3.92;;;;;;;-0.39;65.56;100135.78;5009869;28;20037;-66
2022/04/03 03:58:22;;;;;;;6.72;3.88;;;;;;;-0.45;65.62;100121.09;5009345;28;20707;-66
2022/04/03 04:00:47;;;;;;;9.00;4.57;;;;;;;-0.52;67.54;100135.78;5007478;28;20045;-66
2022/04/03 04:03:13;;;;;;;8.40;4.60;;;;;;;-0.58;68.05;100137.50;4993223;28;20490;-68
2022/04/03 04:05:39;;;;;;;7.95;4.20;;;;;;;-0.63;68.08;100136.63;4996110;28;20046;-67
2022/04/03 04:08:05;;;;;;;7.78;3.97;;;;;;;-0.68;68.26;100146.97;4995098;28;20046;-65
2022/04/03 04:10:30;;;;;;;6.88;4.22;;;;;;;-0.81;70.76;100140.91;4978539;28;20053;-66
2022/04/03 04:12:56;;;;;;;9.20;4.65;;;;;;;-0.90;71.19;100151.22;4994790;28;20052;-65
2022/04/03 04:15:22;;;;;;;24.42;7.30;;;;;;;-1.10;72.85;100157.19;4995000;28;20209;-65
2022/04/03 04:17:48;;;;;;;10.60;5.45;;;;;;;-1.15;73.18;100155.47;4993853;28;20034;-66
2022/04/03 04:20:18;;;;;;;7.78;3.47;;;;;;;-1.10;72.41;100154.59;5005795;28;20038;-66
2022/04/03 04:22:45;;;;;;;5.45;3.58;;;;;;;-1.07;71.43;100158.94;5013626;28;20030;-67
2022/04/03 04:25:16;;;;;;;8.20;3.22;;;;;;;-1.00;71.38;100154.66;5014858;28;20394;-65
2022/04/03 04:27:43;;;;;;;6.55;4.68;;;;;;;-1.01;71.97;100164.16;5014170;28;20076;-67
2022/04/03 04:30:09;;;;;;;6.15;3.83;;;;;;;-1.04;72.32;100165.84;5016052;28;20601;-66
2022/04/03 04:32:34;;;;;;;6.88;4.70;;;;;;;-1.05;71.81;100171.88;5015475;28;20045;-66
2022/04/03 04:34:59;;;;;;;9.57;3.80;;;;;;;-1.09;72.09;100160.63;5014040;28;20030;-66
2022/04/03 04:37:25;;;;;;;6.18;4.10;;;;;;;-1.15;73.25;100163.22;5012787;28;20215;-67
2022/04/03 04:39:52;;;;;;;7.47;4.38;;;;;;;-1.19;73.10;100169.22;5013886;28;20469;-67
2022/04/03 04:42:19;;;;;;;8.30;3.90;;;;;;;-1.30;73.83;100169.19;5010092;28;20042;-66
2022/04/03 04:44:44;;;;;;;10.05;6.00;;;;;;;-1.41;74.58;100171.69;5012644;28;20042;-66
2022/04/03 04:47:10;;;;;;;7.28;4.90;;;;;;;-1.47;75.26;100170.81;5013164;28;20164;-65
2022/04/03 04:49:36;;;;;;;9.70;4.80;;;;;;;-1.53;74.91;100172.50;5012884;28;20096;-67
2022/04/03 04:52:03;;;;;;;8.23;4.57;;;;;;;-1.50;74.77;100182.00;5012279;28;20037;-66
2022/04/03 04:54:29;;;;;;;8.73;3.97;;;;;;;-1.53;75.23;100184.56;5013192;28;20108;-66
2022/04/03 04:56:55;;;;;;;8.20;5.35;;;;;;;-1.63;75.60;100188.78;5014061;28;20037;-65
2022/04/03 04:59:20;;;;;;;7.63;4.25;;;;;;;-1.70;76.15;100187.03;5016173;28;20026;-65
2022/04/03 05:01:46;;;;;;;9.35;4.57;;;;;;;-1.70;76.32;100193.91;5016241;28;20072;-67
2022/04/03 05:04:11;;;;;;;5.93;4.25;;;;;;;-1.71;76.22;100199.94;5022110;28;20413;-67
2022/04/03 05:06:38;;;;;;;8.13;5.10;;;;;;;-1.69;76.06;100198.25;5020742;28;20109;-67
2022/04/03 05:09:04;;;;;;;7.22;5.20;;;;;;;-1.77;76.34;100204.22;5018080;28;20038;-67
2022/04/03 05:11:31;;;;;;;7.57;4.82;;;;;;;-1.83;76.53;100206.75;5017697;28;20092;-67
2022/04/03 05:13:58;;;;;;;7.53;4.90;;;;;;;-1.83;76.37;100201.56;5015999;28;20038;-66
2022/04/03 05:16:23;;;;;;;8.10;5.15;;;;;;;-1.82;76.11;100199.84;5014156;28;20042;-66
2022/04/03 05:18:49;;;;;;;11.10;5.10;;;;;;;-1.89;76.52;100211.03;5014742;28;20496;-66
2022/04/03 05:21:14;;;;;;;10.13;5.60;;;;;;;-2.03;76.98;100206.59;5011380;28;20033;-66
2022/04/03 05:23:41;;;;;;;7.45;5.63;;;;;;;-2.08;77.92;100216.03;5012280;28;20058;-66
2022/04/03 05:26:06;;;;;;;6.20;4.15;;;;;;;-2.05;77.82;100212.59;5010879;28;20048;-65
2022/04/03 05:28:31;;;;;;;7.30;4.85;;;;;;;-2.03;77.93;100221.22;5011721;28;20046;-65
2022/04/03 05:30:58;;;;;;;7.53;4.80;;;;;;;-2.00;77.84;100218.66;5011225;28;20061;-67
2022/04/03 05:33:23;;;;;;;6.85;4.80;;;;;;;-2.04;76.99;100222.94;5011612;28;20133;-65
2022/04/03 05:35:49;;;;;;;7.00;4.05;;;;;;;-2.00;76.60;100224.69;5011670;28;20042;-66
2022/04/03 05:38:15;;;;;;;7.00;4.60;;;;;;;-1.95;76.65;100232.47;5011635;28;20429;-65
2022/04/03 05:40:40;;;;;;;7.35;4.93;;;;;;;-1.96;76.96;100228.19;5010520;28;20038;-64
2022/04/03 05:43:06;;;;;;;9.63;5.95;;;;;;;-1.98;77.17;100227.28;5011434;28;20461;-66
2022/04/03 05:45:31;;;;;;;12.68;7.03;;;;;;;-1.92;77.33;100236.81;5011319;28;20045;-67
2022/04/03 05:47:56;;;;;;;8.35;5.03;;;;;;;-1.85;76.87;100241.19;5011487;28;20041;-66
2022/04/03 05:50:23;;;;;;;11.85;6.25;;;;;;;-1.80;76.26;100236.91;5011240;28;20042;-66
2022/04/03 05:52:51;;;;;;;8.10;5.22;;;;;;;-1.83;76.13;100240.34;5010778;28;20034;-67
2022/04/03 05:55:18;;;;;;;7.47;4.88;;;;;;;-1.79;76.21;100236.94;5011263;28;20076;-67
2022/04/03 05:57:46;;;;;;;11.15;6.22;;;;;;;-1.74;75.94;100236.97;5011041;28;20030;-68
2022/04/03 06:00:13;;;;;;;9.57;5.55;;;;;;;-1.73;75.92;100236.97;5011039;28;20048;-66
2022/04/03 06:02:59;;;;;;;11.57;4.63;;;;;;;-1.69;75.76;100240.47;5010902;28;20038;-66
2022/04/03 06:05:31;;;;;;;;;;;;;;;-1.61;75.72;100241.38;5010007;28;20033;-66
2022/04/03 06:07:57;;;;;;;7.22;4.63;;;;;;;-1.53;74.95;100247.50;5011001;28;20553;-65
2022/04/03 06:10:24;;;;;;;9.27;5.68;;;;;;;-1.46;74.71;100252.69;5010749;28;20069;-66
2022/04/03 06:13:02;;;;;;;9.23;5.70;;;;;;;-1.31;74.61;100252.78;5011051;28;20042;-66
2022/04/03 06:15:33;;;;;;;8.30;5.28;;;;;;;-1.14;74.45;100251.16;5011656;28;20405;-67
2022/04/03 06:18:01;;;;;;;9.07;4.97;;;;;;;-1.04;73.71;100254.66;5015080;28;20117;-67
2022/04/03 06:20:27;;;;;;;8.20;5.10;;;;;;;-0.97;73.46;100253.00;5011959;28;20030;-66
2022/04/03 06:22:52;;;;;;;8.48;4.80;;;;;;;-0.94;72.74;100248.69;5010525;28;20100;-66
2022/04/03 06:25:18;;;;;;;7.93;5.75;;;;;;;-0.82;72.76;100257.38;5010347;28;20037;-67
2022/04/03 06:27:44;;;;;;;8.23;5.32;;;;;;;-0.65;72.20;100255.72;5009899;28;20044;-67
2022/04/03 06:30:10;;;;;;;9.57;6.00;;;;;;;-0.34;71.60;100258.44;5010899;28;20041;-66
2022/04/03 06:32:35;;;;;;;9.52;5.00;;;;;;;-0.31;71.40;100261.88;5010124;28;20034;-65
2022/04/03 06:35:01;;;;;;;9.05;5.93;;;;;;;0.02;70.84;100257.59;5007175;28;20100;-68
2022/04/03 06:37:27;;;;;;;9.65;5.22;;;;;;;0.59;68.70;100261.09;5010390;28;20084;-66
2022/04/03 06:39:52;;;;;;;6.57;5.00;;;;;;;0.89;68.30;100261.03;5010619;28;20569;-66
2022/04/03 06:42:18;;;;;;;7.85;5.03;;;;;;;1.09;66.29;100261.84;5009465;28;20037;-67
2022/04/03 06:44:43;;;;;;;6.57;4.65;;;;;;;1.31;66.34;100260.06;5009060;28;20045;-66
2022/04/03 06:47:09;;;;;;;7.15;5.05;;;;;;;1.86;64.03;100257.16;5010926;28;20034;-68
2022/04/03 06:49:35;;;;;;;9.45;5.18;;;;;;;2.45;62.75;100265.41;5010226;28;20402;-69
2022/04/03 06:52:01;;;;;;;10.40;4.75;;;;;;;2.90;60.64;100251.97;5009152;28;20053;-68
2022/04/03 06:54:26;;;;;;;9.43;5.47;;;;;;;3.60;58.60;100251.16;5010039;28;20517;-67
2022/04/03 06:56:53;;;;;;;7.97;4.50;;;;;;;4.29;56.08;100251.88;5009922;28;20038;-67
2022/04/03 06:59:19;;;;;;;7.85;5.25;;;;;;;4.76;54.32;100249.34;5009764;28;20113;-67
2022/04/03 07:01:44;;;;;;;7.97;5.43;;;;;;;5.11;51.50;100252.16;5009654;28;20072;-65
2022/04/03 07:04:09;;;;;;;7.50;5.50;;;;;;;5.21;49.72;100252.84;5010714;28;20046;-67
2022/04/03 07:06:35;;;;;;;8.07;4.88;;;;;;;5.31;47.68;100246.53;5009779;28;20398;-67
2022/04/03 07:09:00;;;;;;;10.02;3.85;;;;;;;5.48;47.32;100256.66;5009851;28;20026;-68
2022/04/03 07:11:26;;;;;;;11.93;4.72;;;;;;;5.52;46.68;100260.94;5009554;28;20106;-66
2022/04/03 07:13:51;;;;;;;6.20;4.45;;;;;;;5.67;44.99;100264.97;5009579;28;20037;-67
2022/04/03 07:16:20;;;;;;;6.25;3.42;;;;;;;5.90;45.18;100266.22;5009524;28;20053;-65
2022/04/03 07:18:46;;;;;;;7.75;4.30;;;;;;;6.13;44.29;100261.38;5006461;28;20038;-68
2022/04/03 07:21:11;;;;;;;9.43;3.97;;;;;;;6.62;43.67;100264.53;5007277;28;20045;-67
2022/04/03 07:23:37;;;;;;;5.72;3.92;;;;;;;6.88;42.90;100264.72;5008875;28;20056;-68
2022/04/03 07:26:05;;;;;;;6.07;3.40;;;;;;;7.26;42.06;100260.22;5008061;28;20137;-66
2022/04/03 07:28:31;;;;;;;10.88;4.68;;;;;;;7.38;41.50;100258.97;5006717;28;20038;-67
2022/04/03 07:31:03;;;;;;;9.50;3.70;;;;;;;7.48;41.62;100259.59;5009302;28;20054;-67
2022/04/03 07:33:28;;;;;;;7.07;4.57;;;;;;;7.52;41.38;100272.56;5007267;28;20037;-67
2022/04/03 07:35:54;;;;;;;8.68;3.78;;;;;;;7.41;40.87;100273.78;5007630;28;20390;-68
2022/04/03 07:38:20;;;;;;;8.68;4.53;;;;;;;7.55;40.61;100271.63;5009544;28;20141;-66
2022/04/03 07:40:46;;;;;;;6.40;4.15;;;;;;;8.00;40.07;100273.81;5013756;28;20030;-67
2022/04/03 07:43:13;;;;;;;7.47;4.68;;;;;;;8.10;39.52;100274.38;5013841;28;20087;-66
2022/04/03 07:45:39;;;;;;;5.85;4.25;;;;;;;8.32;39.23;100279.81;5010060;28;20045;-69
2022/04/03 07:48:04;;;;;;;5.72;3.75;;;;;;;8.52;39.02;100274.78;5012401;28;20025;-67
2022/04/03 07:50:30;;;;;;;7.68;3.90;;;;;;;8.74;38.61;100271.47;5013622;28;20121;-67
2022/04/03 07:52:55;;;;;;;8.02;3.97;;;;;;;9.15;37.01;100274.41;5013356;28;20041;-68
2022/04/03 07:55:20;;;;;;;5.85;3.45;;;;;;;9.33;36.60;100267.63;5012564;28;20490;-66
2022/04/03 07:57:46;;;;;;;6.03;3.45;;;;;;;9.16;36.25;100271.72;5013756;28;20065;-66
2022/04/03 08:00:12;;;;;;;13.38;4.13;;;;;;;9.15;36.93;100280.50;5015080;28;20771;-66
2022/04/03 08:02:39;;;;;;;7.57;3.90;;;;;;;9.61;36.30;100275.38;5009471;28;20093;-68
2022/04/03 08:05:05;;;;;;;7.85;3.38;;;;;;;9.72;35.28;100281.09;5017238;28;20819;-65
2022/04/03 08:07:44;;;;;;;8.20;3.45;;;;;;;9.75;34.00;100274.88;5023238;28;20042;-65
2022/04/03 08:10:13;;;;;;;5.88;3.53;;;;;;;9.95;33.66;100279.38;5022055;28;20034;-65
2022/04/03 08:12:39;;;;;;;5.25;2.70;;;;;;;10.32;33.23;100274.38;5012345;28;20038;-69
2022/04/03 08:15:07;;;;;;;9.05;3.03;;;;;;;10.69;33.40;100274.66;5013381;28;20034;-67
2022/04/03 08:17:33;;;;;;;5.65;3.53;;;;;;;10.71;33.12;100275.44;5012997;28;20048;-68
2022/04/03 08:19:58;;;;;;;6.65;3.60;;;;;;;10.93;32.80;100278.88;5012861;28;20030;-67
2022/04/03 08:22:24;;;;;;;8.60;3.97;;;;;;;10.95;33.26;100273.53;5011939;28;20038;-66
2022/04/03 08:24:50;;;;;;;5.15;3.10;;;;;;;10.80;32.63;100284.72;5013172;28;20040;-66
2022/04/03 08:27:16;;;;;;;4.55;3.53;;;;;;;10.77;33.36;100282.22;5011994;28;20425;-71
2022/04/03 08:29:42;;;;;;;7.07;3.13;;;;;;;10.70;32.78;100284.25;5012929;28;20033;-70
2022/04/03 08:32:07;;;;;;;3.50;2.75;;;;;;;10.50;33.36;100288.56;5012251;28;20038;-68
2022/04/03 08:34:33;;;;;;;4.03;2.67;;;;;;;10.53;33.85;100288.47;5002863;28;20030;-70
2022/04/03 08:36:59;;;;;;;6.30;3.45;;;;;;;10.24;33.36;100294.88;5012100;28;20133;-77
2022/04/03 08:39:25;;;;;;;7.47;3.97;;;;;;;10.30;33.72;100293.81;5012902;28;20116;-64
2022/04/03 08:41:51;;;;;;;7.50;3.70;;;;;;;10.11;34.05;100291.00;5011778;28;20054;-69
2022/04/03 08:44:17;;;;;;;6.07;3.63;;;;;;;10.10;33.94;100295.41;4996537;28;20136;-69
2022/04/03 08:46:47;;;;;;;6.43;3.70;;;;;;;9.73;34.65;100288.06;5005433;28;20041;-67
2022/04/03 08:49:12;;;;;;;9.32;5.57;;;;;;;9.66;35.25;100292.69;4999581;28;20042;-66
2022/04/03 08:51:39;;;;;;;8.82;3.45;;;;;;;9.71;35.21;100292.53;4991071;28;20375;-67
2022/04/03 08:54:06;;;;;;;5.07;3.60;;;;;;;9.50;35.57;100294.19;4992658;28;20616;-68
2022/04/03 08:56:31;;;;;;;6.72;3.30;;;;;;;9.51;35.37;100290.63;5004648;28;20053;-68
2022/04/03 08:58:57;;;;;;;8.13;4.05;;;;;;;9.32;35.99;100295.72;5007672;28;20037;-65
2022/04/03 09:01:23;;;;;;;8.57;4.10;;;;;;;9.53;35.81;100299.34;5007298;28;20049;-67
2022/04/03 09:03:49;;;;;;;9.05;4.53;;;;;;;9.95;35.73;100303.91;5007314;28;20204;-67
2022/04/03 09:06:16;;;;;;;8.52;3.75;;;;;;;10.42;35.04;100295.94;5009503;28;20041;-68
2022/04/03 09:08:42;;;;;;;8.18;4.55;;;;;;;10.78;34.20;100290.09;5009390;28;20038;-66
2022/04/03 09:11:08;;;;;;;7.25;3.85;;;;;;;11.04;33.19;100298.66;5008255;28;20119;-66
2022/04/03 09:13:34;;;;;;;7.60;3.75;;;;;;;11.32;32.82;100296.56;5008753;28;20084;-67
2022/04/03 09:16:00;;;;;;;5.38;3.58;;;;;;;11.61;32.10;100299.66;5008848;28;20038;-66
2022/04/03 09:18:44;;;;;;;7.15;3.65;;;;;;;11.98;32.27;100298.00;5007205;28;20129;-67
2022/04/03 09:21:16;;;;;;;6.07;3.42;;;;;;;12.23;31.29;100288.00;4992387;28;20042;-67
2022/04/03 09:24:07;;;;;;;5.57;3.75;;;;;;;12.69;29.75;100282.22;4989435;28;20092;-67
2022/04/03 09:26:34;;;;;;;5.50;3.95;;;;;;;13.03;29.91;100291.97;4997970;28;20038;-67
2022/04/03 09:29:17;;;;;;;5.82;4.30;;;;;;;13.75;29.53;100295.28;5006957;28;20040;-68
2022/04/03 09:31:46;;;;;;;6.47;3.75;;;;;;;13.91;28.57;100292.66;5007367;28;20059;-71
2022/04/03 09:34:20;;;;;;;10.70;4.25;;;;;;;14.45;27.56;100286.97;5008039;28;20505;-66
2022/04/03 09:36:59;;;;;;;4.57;2.80;;;;;;;14.37;25.24;100288.28;5007041;28;20045;-67
2022/04/03 09:39:30;;;;;;;5.57;3.70;;;;;;;13.71;26.98;100291.09;5006279;28;20046;-66
2022/04/03 09:42:12;;;;;;;5.03;3.08;;;;;;;13.31;28.16;100293.19;4987533;28;20096;-66
2022/04/03 09:44:42;;;;;;;4.97;3.03;;;;;;;13.81;26.73;100291.44;4999792;28;20166;-67
2022/04/03 09:47:30;;;;;;;5.07;2.92;;;;;;;12.54;28.51;100296.22;5006284;28;20773;-68
2022/04/03 09:50:01;;;;;;;3.95;3.53;;;;;;;13.17;28.19;100290.38;5007643;28;20107;-69
2022/04/03 09:52:33;;;;;;;5.40;3.25;;;;;;;12.47;27.96;100282.44;5006711;28;20145;-67
2022/04/03 09:54:59;;;;;;;7.70;3.70;;;;;;;12.05;29.39;100291.50;5006582;28;20034;-66
2022/04/03 09:57:24;;;;;;;5.60;3.95;;;;;;;13.16;28.22;100286.03;5006835;28;20041;-66
2022/04/03 09:59:54;;;;;;;4.13;3.40;;;;;;;13.32;27.67;100287.84;5007324;28;20041;-67
2022/04/03 10:02:24;;;;;;;4.38;3.03;;;;;;;13.92;26.79;100283.75;5005343;28;20493;-67
2022/04/03 10:04:51;;;;;;;7.50;3.20;;;;;;;14.20;25.89;100285.75;5006277;28;20121;-67
2022/04/03 10:07:17;;;;;;;7.20;3.38;;;;;;;14.52;25.50;100277.72;5007611;28;20056;-67
2022/04/03 10:09:47;;;;;;;4.18;3.47;;;;;;;15.42;25.03;100274.16;5006549;28;20073;-67
2022/04/03 10:12:17;;;;;;;8.35;3.70;;;;;;;15.68;24.19;100272.56;5008128;28;20038;-67
2022/04/03 10:14:45;;;;;;;7.50;3.05;;;;;;;14.53;25.05;100277.69;5010155;28;20033;-69
2022/04/03 10:17:11;;;;;;;4.30;3.20;;;;;;;14.20;25.61;100274.25;5005081;28;20041;-69
2022/04/03 10:19:37;;;;;;;4.35;3.03;;;;;;;13.34;25.46;100274.53;5009904;28;20030;-67
2022/04/03 10:22:05;;;;;;;6.68;3.65;;;;;;;12.04;28.23;100273.94;5012175;28;20041;-70
2022/04/03 10:24:35;;;;;;;5.40;3.63;;;;;;;11.51;29.27;100277.25;5009853;28;20030;-67
2022/04/03 10:27:10;;;;;;;6.65;3.00;;;;;;;11.44;30.26;100266.09;5007550;28;20049;-49
2022/04/03 10:29:39;;;;;;;5.90;3.33;;;;;;;10.68;30.12;100278.19;5010870;28;20044;-50
2022/04/03 10:32:06;;;;;;;5.95;3.00;;;;;;;10.21;31.25;100273.03;5006937;28;20044;-51
2022/04/03 10:34:47;;;;;;;5.05;2.67;;;;;;;9.82;31.18;100277.19;5020187;28;20516;-50
2022/04/03 10:37:33;;;;;;;6.25;3.28;;;;;;;9.16;32.73;100266.47;5030268;28;20064;-51
2022/04/03 10:40:17;;;;;;;4.97;3.05;;;;;;;9.49;32.96;100266.16;5000294;28;20033;-67
2022/04/03 10:42:51;;;;;;;4.05;2.92;;;;;;;9.60;31.85;100265.75;5000574;28;20497;-67
2022/04/03 10:45:19;;;;;;;6.97;3.20;;;;;;;9.81;32.25;100267.56;5004123;28;20038;-67
2022/04/03 10:47:46;;;;;;;4.82;3.22;;;;;;;9.88;32.53;100263.78;5005310;28;20060;-66
2022/04/03 10:50:12;;;;;;;4.88;2.90;;;;;;;10.26;31.48;100253.53;5002632;28;20034;-67
2022/04/03 10:52:37;;;;;;;4.22;2.72;;;;;;;10.50;30.84;100262.22;5003972;28;20037;-67
2022/04/03 10:55:22;;;;;;;6.72;2.97;;;;;;;10.57;30.67;100256.69;5005642;28;20053;-67
2022/04/03 10:57:49;;;;;;;7.43;2.90;;;;;;;9.79;31.63;100247.47;5006347;28;20573;-66
2022/04/03 11:00:14;;;;;;;3.45;2.42;;;;;;;10.17;32.13;100247.75;5008198;28;20245;-66
2022/04/03 11:02:44;;;;;;;5.43;3.13;;;;;;;10.08;32.66;100241.06;5011070;28;20045;-65
2022/04/03 11:05:22;;;;;;;5.63;3.28;;;;;;;10.00;32.94;100245.78;5008634;28;20030;-66
2022/04/03 11:08:00;;;;;;;4.13;2.92;;;;;;;9.82;32.11;100237.69;5007915;28;20043;-66
2022/04/03 11:10:54;;;;;;;4.53;2.58;;;;;;;9.28;32.88;100235.34;5006766;28;20714;-66
2022/04/03 11:13:28;;;;;;;5.25;3.03;;;;;;;8.93;34.30;100240.09;5005040;28;20441;-65
2022/04/03 11:15:54;;;;;;;3.50;2.47;;;;;;;8.57;33.66;100230.81;5005967;28;20042;-66
2022/04/03 11:18:41;;;;;;;3.10;2.30;;;;;;;8.35;35.38;100233.28;5005247;28;20034;-68
2022/04/03 11:21:14;;;;;;;7.07;2.75;;;;;;;8.14;35.62;100226.94;5005429;28;20042;-67
2022/04/03 11:23:49;;;;;;;6.82;2.75;;;;;;;8.09;35.22;100228.84;5005852;28;20065;-67
2022/04/03 11:26:15;;;;;;;5.28;2.40;;;;;;;8.23;34.41;100232.81;5005626;28;20038;-67
2022/04/03 11:28:42;;;;;;;6.10;2.63;;;;;;;8.38;35.07;100225.28;5006109;28;20038;-65